createdAt,value
2018-04-18T00:01:09.372Z,8.30
2018-04-18T00:03:38.440Z,8.40
2018-04-18T00:06:06.749Z,8.40
2018-04-18T00:08:35.846Z,8.50
2018-04-18T00:11:04.171Z,8.40
2018-04-18T00:13:33.215Z,8.30
2018-04-18T00:16:01.534Z,8.30
2018-04-18T00:18:29.861Z,8.20
2018-04-18T00:20:58.215Z,8.30
2018-04-18T00:23:26.520Z,8.30
2018-04-18T00:25:55.561Z,8.30
2018-04-18T00:28:23.872Z,8.20
2018-04-18T00:30:52.194Z,8.40
2018-04-18T00:33:20.574Z,8.30
2018-04-18T00:35:48.861Z,8.30
2018-04-18T00:38:17.169Z,8.20
2018-04-18T00:40:45.497Z,8.40
2018-04-18T00:43:13.779Z,8.50
2018-04-18T00:45:42.061Z,8.40
2018-04-18T00:48:10.406Z,8.30
2018-04-18T00:50:38.695Z,8.10
2018-04-18T00:53:06.978Z,8.20
2018-04-18T00:55:35.289Z,8.30
2018-04-18T00:58:03.568Z,8.20
2018-04-18T01:00:31.884Z,8.00
2018-04-18T01:03:00.953Z,8.30
2018-04-18T01:05:29.272Z,8.20
2018-04-18T01:07:58.371Z,8.30
2018-04-18T01:10:26.657Z,8.20
2018-04-18T01:12:54.986Z,8.10
2018-04-18T01:15:24.029Z,8.00
2018-04-18T01:20:27.180Z,7.90
2018-04-18T01:22:55.678Z,7.80
2018-04-18T01:25:23.967Z,7.80
2018-04-18T01:27:52.256Z,7.80
2018-04-18T01:30:20.608Z,7.80
2018-04-18T01:32:48.893Z,7.90
2018-04-18T01:35:17.177Z,8.10
2018-04-18T01:37:45.492Z,8.20
2018-04-18T01:40:13.772Z,8.10
2018-04-18T01:42:42.085Z,7.90
2018-04-18T01:45:10.369Z,7.90
2018-04-18T01:47:38.684Z,7.80
2018-04-18T01:50:06.969Z,7.70
2018-04-18T01:52:35.290Z,7.60
2018-04-18T01:55:04.582Z,7.60
2018-04-18T01:57:33.633Z,7.50
2018-04-18T02:00:01.944Z,7.50
2018-04-18T02:02:30.234Z,7.60
2018-04-18T02:04:58.566Z,7.60
2018-04-18T02:07:27.622Z,7.60
2018-04-18T02:09:55.929Z,7.60
2018-04-18T02:12:24.244Z,7.80
2018-04-18T02:14:53.334Z,7.60
2018-04-18T02:17:21.658Z,7.60
2018-04-18T02:19:49.945Z,7.50
2018-04-18T02:22:18.283Z,7.60
2018-04-18T02:24:46.573Z,7.60
2018-04-18T02:27:15.272Z,7.50
2018-04-18T02:29:43.583Z,7.40
2018-04-18T02:32:11.901Z,7.30
2018-04-18T02:34:40.191Z,7.30
2018-04-18T02:37:08.517Z,7.30
2018-04-18T02:39:36.797Z,7.20
2018-04-18T02:42:05.109Z,7.10
2018-04-18T02:44:33.398Z,7.10
2018-04-18T02:47:01.801Z,7.00
2018-04-18T02:49:31.594Z,7.00
2018-04-18T02:51:59.919Z,7.00
2018-04-18T02:54:28.233Z,7.00
2018-04-18T02:56:57.408Z,7.00
2018-04-18T02:59:25.689Z,6.90
2018-04-18T03:01:54.019Z,6.90
2018-04-18T03:04:23.081Z,7.00
2018-04-18T03:06:51.389Z,6.90
2018-04-18T03:09:19.711Z,7.00
2018-04-18T03:11:48.798Z,7.20
2018-04-18T03:14:17.118Z,7.20
2018-04-18T03:16:45.429Z,7.30
2018-04-18T03:19:13.744Z,7.30
2018-04-18T03:21:42.037Z,7.30
2018-04-18T03:24:10.365Z,7.30
2018-04-18T03:26:39.456Z,7.30
2018-04-18T03:29:07.727Z,7.30
2018-04-18T03:31:36.037Z,7.40
2018-04-18T03:34:04.405Z,7.50
2018-04-18T03:36:32.719Z,7.50
2018-04-18T03:39:01.029Z,7.40
2018-04-18T03:41:29.367Z,7.20
2018-04-18T03:43:57.673Z,7.20
2018-04-18T03:46:25.945Z,7.10
2018-04-18T03:48:54.265Z,7.00
2018-04-18T03:51:23.560Z,7.20
2018-04-18T03:53:51.858Z,7.20
2018-04-18T03:56:20.160Z,7.20
2018-04-18T03:58:48.469Z,7.10
2018-04-18T04:01:16.752Z,7.10
2018-04-18T04:03:45.081Z,7.10
2018-04-18T04:06:13.368Z,7.10
2018-04-18T04:08:41.879Z,7.10
2018-04-18T04:11:10.162Z,7.10
2018-04-18T04:13:38.445Z,7.00
2018-04-18T04:16:12.610Z,6.90
2018-04-18T04:18:52.923Z,7.10
2018-04-18T04:21:33.185Z,7.10
2018-04-18T04:24:13.504Z,7.10
2018-04-18T04:26:41.810Z,7.10
2018-04-18T04:29:10.094Z,7.20
2018-04-18T04:31:38.474Z,7.30
2018-04-18T04:34:06.757Z,7.40
2018-04-18T04:36:35.045Z,7.30
2018-04-18T04:39:03.366Z,7.30
2018-04-18T04:41:32.457Z,7.90
2018-04-18T04:44:00.853Z,7.90
2018-04-18T04:46:29.145Z,8.00
2018-04-18T04:48:57.461Z,8.00
2018-04-18T04:51:26.508Z,8.20
2018-04-18T04:53:54.828Z,8.20
2018-04-18T04:56:23.152Z,8.30
2018-04-18T04:58:52.238Z,8.10
2018-04-18T05:01:21.350Z,8.20
2018-04-18T05:03:50.437Z,8.30
2018-04-18T05:06:18.712Z,8.30
2018-04-18T05:08:47.025Z,8.40
2018-04-18T05:11:15.345Z,8.30
2018-04-18T05:13:43.625Z,8.30
2018-04-18T05:16:12.806Z,8.60
2018-04-18T05:18:41.196Z,8.60
2018-04-18T05:21:09.576Z,8.70
2018-04-18T05:23:37.865Z,9.00
2018-04-18T05:26:06.365Z,9.20
2018-04-18T05:28:34.654Z,9.30
2018-04-18T05:31:02.944Z,9.40
2018-04-18T05:36:05.744Z,9.80
2018-04-18T05:38:34.035Z,10.00
2018-04-18T05:41:02.357Z,10.30
2018-04-18T05:43:30.644Z,10.50
2018-04-18T05:45:58.933Z,10.70
2018-04-18T05:48:27.257Z,10.90
2018-04-18T05:50:55.607Z,11.00
2018-04-18T05:53:24.089Z,11.20
2018-04-18T05:55:52.392Z,11.30
2018-04-18T05:58:20.732Z,11.50
2018-04-18T06:00:49.038Z,11.80
2018-04-18T06:03:17.341Z,11.80
2018-04-18T06:05:45.674Z,12.00
2018-04-18T06:08:14.741Z,12.40
2018-04-18T06:10:43.153Z,12.40
2018-04-18T06:13:11.477Z,12.70
2018-04-18T06:15:39.778Z,12.90
2018-04-18T06:18:08.103Z,12.90
2018-04-18T06:20:36.519Z,13.10
2018-04-18T06:23:06.320Z,13.40
2018-04-18T06:25:34.669Z,13.40
2018-04-18T06:28:03.008Z,13.60
2018-04-18T06:30:31.309Z,13.80
2018-04-18T06:33:01.154Z,14.10
2018-04-18T06:35:30.244Z,14.20
2018-04-18T06:37:59.341Z,14.30
2018-04-18T06:40:27.639Z,14.30
2018-04-18T06:42:57.443Z,14.70
2018-04-18T06:45:25.769Z,14.70
2018-04-18T06:47:54.856Z,15.10
2018-04-18T06:50:23.253Z,15.10
2018-04-18T06:52:53.356Z,15.40
2018-04-18T06:55:21.686Z,15.40
2018-04-18T06:57:49.982Z,15.60
2018-04-18T07:00:19.269Z,16.00
2018-04-18T07:02:47.565Z,16.00
2018-04-18T07:05:15.853Z,16.20
2018-04-18T07:07:44.240Z,16.30
2018-04-18T07:10:12.534Z,16.50
2018-04-18T07:12:40.861Z,16.60
2018-04-18T07:15:09.200Z,16.70
2018-04-18T07:17:37.490Z,16.70
2018-04-18T07:20:05.817Z,16.90
2018-04-18T07:22:34.900Z,17.20
2018-04-18T07:25:03.229Z,17.20
2018-04-18T07:27:31.558Z,17.30
2018-04-18T07:29:59.889Z,17.30
2018-04-18T07:32:28.949Z,17.60
2018-04-18T07:34:57.265Z,17.60
2018-04-18T07:37:25.648Z,17.80
2018-04-18T07:39:55.453Z,18.00
2018-04-18T07:42:23.869Z,18.00
2018-04-18T07:44:52.201Z,18.10
2018-04-18T07:47:20.540Z,18.20
2018-04-18T07:49:48.941Z,18.40
2018-04-18T07:52:17.265Z,18.40
2018-04-18T07:54:46.341Z,18.40
2018-04-18T07:57:14.730Z,18.40
2018-04-18T07:59:43.224Z,18.60
2018-04-18T08:04:46.205Z,18.40
2018-04-18T08:07:14.548Z,18.70
2018-04-18T08:09:42.942Z,19.00
2018-04-18T08:12:11.268Z,19.30
2018-04-18T08:14:39.561Z,19.40
2018-04-18T08:17:07.892Z,19.40
2018-04-18T08:19:36.197Z,19.60
2018-04-18T08:22:04.525Z,19.80
2018-04-18T08:24:32.817Z,19.90
2018-04-18T08:27:01.136Z,20.10
2018-04-18T08:29:29.433Z,20.20
2018-04-18T08:31:57.835Z,20.10
2018-04-18T08:34:26.168Z,20.10
2018-04-18T08:36:55.261Z,20.40
2018-04-18T08:39:24.321Z,20.50
2018-04-18T08:41:52.642Z,20.50
2018-04-18T08:44:21.040Z,20.30
2018-04-18T08:46:49.417Z,20.40
2018-04-18T08:49:17.745Z,20.40
2018-04-18T08:51:46.837Z,20.70
2018-04-18T08:54:15.889Z,20.70
2018-04-18T08:56:44.223Z,20.70
2018-04-18T08:59:12.543Z,20.80
2018-04-18T09:01:41.589Z,20.90
2018-04-18T09:04:09.908Z,20.90
2018-04-18T09:06:38.211Z,21.00
2018-04-18T09:09:07.298Z,21.00
2018-04-18T09:11:36.353Z,21.00
2018-04-18T09:14:04.685Z,21.00
2018-04-18T09:16:32.975Z,20.90
2018-04-18T09:19:01.273Z,20.90
2018-04-18T09:21:29.669Z,21.10
2018-04-18T09:23:57.962Z,21.10
2018-04-18T09:26:26.345Z,21.40
2018-04-18T09:28:54.645Z,21.40
2018-04-18T09:31:22.989Z,21.50
2018-04-18T09:33:51.285Z,21.50
2018-04-18T09:36:19.926Z,21.50
2018-04-18T09:38:48.214Z,21.60
2018-04-18T09:41:17.277Z,21.60
2018-04-18T09:43:45.596Z,21.60
2018-04-18T09:46:14.664Z,21.80
2018-04-18T09:48:43.197Z,21.80
2018-04-18T09:51:11.489Z,22.00
2018-04-18T09:53:39.792Z,22.10
2018-04-18T09:56:08.173Z,22.10
2018-04-18T09:58:36.501Z,21.80
2018-04-18T10:01:04.821Z,21.70
2018-04-18T10:03:33.156Z,21.90
2018-04-18T10:06:02.252Z,22.10
2018-04-18T10:08:30.633Z,22.10
2018-04-18T10:10:59.101Z,22.30
2018-04-18T10:13:27.394Z,22.30
2018-04-18T10:15:55.684Z,22.20
2018-04-18T10:18:24.005Z,22.10
2018-04-18T10:20:52.307Z,21.80
2018-04-18T10:23:21.400Z,22.20
2018-04-18T10:25:49.699Z,22.20
2018-04-18T10:28:18.073Z,22.40
2018-04-18T10:30:46.357Z,22.60
2018-04-18T10:33:14.677Z,22.80
2018-04-18T10:35:43.738Z,22.90
2018-04-18T10:38:12.239Z,22.90
2018-04-18T10:40:40.480Z,23.10
2018-04-18T10:43:09.535Z,23.10
2018-04-18T10:45:37.844Z,23.00
2018-04-18T10:48:06.228Z,23.00
2018-04-18T10:50:34.630Z,22.90
2018-04-18T10:53:02.949Z,22.50
2018-04-18T10:55:32.041Z,22.30
2018-04-18T10:58:00.412Z,22.20
2018-04-18T11:00:28.702Z,22.10
2018-04-18T11:02:57.023Z,21.80
2018-04-18T11:05:26.085Z,21.80
2018-04-18T11:07:54.404Z,21.80
2018-04-18T11:10:23.465Z,21.80
2018-04-18T11:12:51.767Z,21.70
2018-04-18T11:15:20.080Z,21.90
2018-04-18T11:17:48.466Z,22.30
2018-04-18T11:20:17.052Z,22.40
2018-04-18T11:22:45.348Z,22.20
2018-04-18T11:25:13.640Z,22.10
2018-04-18T11:27:41.979Z,22.00
2018-04-18T11:30:10.266Z,22.30
2018-04-18T11:32:38.597Z,22.30
2018-04-18T11:35:06.889Z,22.40
2018-04-18T11:37:35.392Z,22.70
2018-04-18T11:40:03.678Z,23.10
2018-04-18T11:42:32.065Z,23.30
2018-04-18T11:45:00.396Z,23.40
2018-04-18T11:47:29.477Z,23.50
2018-04-18T11:49:57.804Z,23.40
2018-04-18T11:52:26.153Z,23.10
2018-04-18T11:54:54.481Z,23.00
2018-04-18T11:57:22.773Z,23.40
2018-04-18T11:59:51.137Z,23.50
2018-04-18T12:02:20.230Z,23.20
2018-04-18T12:04:48.553Z,23.20
2018-04-18T12:07:16.848Z,23.20
2018-04-18T12:09:45.169Z,23.30
2018-04-18T12:12:13.453Z,23.60
2018-04-18T12:14:41.873Z,23.70
2018-04-18T12:17:10.168Z,23.70
2018-04-18T12:19:38.457Z,23.90
2018-04-18T12:22:06.848Z,23.90
2018-04-18T12:24:35.163Z,23.90
2018-04-18T12:27:04.208Z,23.30
2018-04-18T12:29:32.688Z,23.30
2018-04-18T12:32:01.030Z,23.20
2018-04-18T12:34:29.311Z,23.30
2018-04-18T12:36:57.639Z,23.60
2018-04-18T12:39:25.928Z,23.80
2018-04-18T12:41:54.977Z,24.00
2018-04-18T12:44:23.317Z,24.00
2018-04-18T12:46:52.401Z,24.30
2018-04-18T12:49:20.789Z,24.20
2018-04-18T12:51:49.849Z,24.00
2018-04-18T12:54:18.185Z,24.00
2018-04-18T12:56:46.623Z,24.00
2018-04-18T12:59:14.936Z,24.00
2018-04-18T13:01:43.282Z,24.10
2018-04-18T13:04:12.466Z,24.30
2018-04-18T13:06:40.789Z,24.30
2018-04-18T13:09:09.845Z,24.30
2018-04-18T13:11:38.257Z,24.20
2018-04-18T13:14:06.545Z,24.20
2018-04-18T13:16:35.041Z,23.80
2018-04-18T13:19:03.338Z,23.30
2018-04-18T13:21:31.620Z,23.40
2018-04-18T13:23:59.945Z,23.60
2018-04-18T13:26:28.298Z,23.90
2018-04-18T13:28:56.625Z,23.70
2018-04-18T13:31:24.918Z,23.70
2018-04-18T13:33:53.256Z,23.90
2018-04-18T13:36:21.549Z,23.90
2018-04-18T13:38:49.873Z,23.90
2018-04-18T13:41:18.934Z,24.10
2018-04-18T13:43:47.345Z,24.00
2018-04-18T13:46:17.274Z,24.20
2018-04-18T13:48:47.073Z,23.90
2018-04-18T13:51:15.425Z,24.00
2018-04-18T13:53:43.737Z,24.00
2018-04-18T13:56:12.069Z,24.00
2018-04-18T13:58:40.369Z,24.00
2018-04-18T14:01:08.808Z,24.20
2018-04-18T14:03:37.105Z,24.30
2018-04-18T14:06:05.392Z,24.40
2018-04-18T14:08:33.728Z,24.40
2018-04-18T14:11:02.022Z,24.50
2018-04-18T14:13:30.311Z,24.70
2018-04-18T14:15:58.785Z,24.60
2018-04-18T14:18:27.082Z,24.70
2018-04-18T14:20:55.388Z,24.50
2018-04-18T14:23:24.682Z,24.50
2018-04-18T14:25:52.976Z,24.50
2018-04-18T14:28:21.273Z,24.50
2018-04-18T14:30:49.601Z,24.30
2018-04-18T14:33:17.937Z,24.10
2018-04-18T14:35:46.332Z,24.10
2018-04-18T14:38:14.664Z,24.30
2018-04-18T14:40:42.989Z,24.70
2018-04-18T14:43:11.309Z,25.10
2018-04-18T14:45:39.627Z,24.80
2018-04-18T14:48:07.913Z,24.60
2018-04-18T14:50:37.006Z,24.60
2018-04-18T14:53:05.476Z,24.60
2018-04-18T14:55:33.768Z,24.40
2018-04-18T14:58:02.157Z,24.30
2018-04-18T15:00:30.479Z,24.20
2018-04-18T15:02:59.549Z,24.20
2018-04-18T15:05:27.940Z,24.20
2018-04-18T15:07:56.259Z,24.40
2018-04-18T15:10:25.310Z,24.50
2018-04-18T15:12:53.639Z,24.50
2018-04-18T15:15:21.960Z,24.40
2018-04-18T15:17:50.814Z,24.40
2018-04-18T15:20:19.129Z,24.30
2018-04-18T15:22:48.191Z,24.40
2018-04-18T15:25:16.504Z,24.40
2018-04-18T15:27:44.801Z,24.60
2018-04-18T15:30:13.125Z,25.00
2018-04-18T15:32:42.209Z,26.60
2018-04-18T15:35:11.046Z,26.60
2018-04-18T15:37:39.588Z,27.80
2018-04-18T15:40:07.978Z,27.80
2018-04-18T15:42:36.283Z,28.00
2018-04-18T15:45:04.664Z,27.70
2018-04-18T15:47:32.949Z,27.10
2018-04-18T15:50:01.270Z,27.10
2018-04-18T15:52:29.588Z,26.90
2018-04-18T15:54:57.868Z,27.20
2018-04-18T15:57:26.954Z,27.70
2018-04-18T15:59:55.247Z,27.70
2018-04-18T16:02:24.331Z,28.80
2018-04-18T16:04:52.732Z,28.80
2018-04-18T16:07:21.102Z,28.60
2018-04-18T16:09:49.429Z,28.80
2018-04-18T16:12:18.505Z,27.70
2018-04-18T16:14:46.796Z,27.60
2018-04-18T16:17:15.082Z,28.40
2018-04-18T16:19:43.397Z,28.00
2018-04-18T16:22:11.690Z,27.80
2018-04-18T16:24:40.005Z,27.90
2018-04-18T16:27:08.290Z,27.90
2018-04-18T16:29:43.445Z,28.10
2018-04-18T16:32:11.724Z,27.90
2018-04-18T16:34:40.077Z,27.40
2018-04-18T16:37:08.401Z,27.20
2018-04-18T16:39:37.453Z,27.20
2018-04-18T16:42:05.881Z,27.20
2018-04-18T16:44:34.265Z,26.80
2018-04-18T16:47:02.580Z,26.20
2018-04-18T16:49:31.693Z,24.80
2018-04-18T16:52:00.773Z,24.30
2018-04-18T16:54:29.084Z,24.30
2018-04-18T16:56:58.133Z,24.10
2018-04-18T16:59:26.458Z,24.10
2018-04-18T17:01:54.844Z,24.20
2018-04-18T17:04:23.173Z,24.20
2018-04-18T17:06:51.575Z,23.80
2018-04-18T17:09:19.895Z,23.60
2018-04-18T17:11:48.149Z,23.20
2018-04-18T17:14:16.465Z,23.00
2018-04-18T17:16:44.777Z,22.60
2018-04-18T17:19:13.101Z,22.60
2018-04-18T17:21:42.188Z,22.30
2018-04-18T17:24:10.485Z,22.30
2018-04-18T17:26:38.792Z,22.20
2018-04-18T17:29:07.843Z,21.90
2018-04-18T17:31:36.156Z,21.80
2018-04-18T17:34:04.440Z,21.80
2018-04-18T17:36:32.720Z,21.60
2018-04-18T17:39:01.043Z,21.40
2018-04-18T17:41:30.090Z,21.10
2018-04-18T17:43:58.414Z,21.10
2018-04-18T17:46:29.150Z,21.00
2018-04-18T17:48:57.461Z,20.90
2018-04-18T17:51:25.749Z,20.80
2018-04-18T17:53:55.648Z,20.60
2018-04-18T17:56:23.929Z,20.50
2018-04-18T17:58:52.352Z,20.40
2018-04-18T18:01:20.641Z,20.30
2018-04-18T18:03:49.124Z,20.20
2018-04-18T18:06:17.448Z,20.10
2018-04-18T18:08:45.713Z,20.00
2018-04-18T18:11:14.037Z,19.80
2018-04-18T18:13:42.320Z,19.70
2018-04-18T18:16:11.396Z,19.40
2018-04-18T18:18:39.713Z,19.40
2018-04-18T18:21:08.784Z,19.30
2018-04-18T18:23:37.180Z,19.30
2018-04-18T18:26:05.574Z,19.20
2018-04-18T18:28:35.374Z,19.00
2018-04-18T18:31:03.690Z,19.00
2018-04-18T18:33:32.013Z,18.90
2018-04-18T18:36:01.097Z,18.60
2018-04-18T18:38:29.381Z,18.60
2018-04-18T18:40:57.700Z,18.50
2018-04-18T18:43:26.793Z,18.10
2018-04-18T18:45:55.873Z,17.80
2018-04-18T18:48:24.173Z,17.80
2018-04-18T18:50:52.506Z,17.70
2018-04-18T18:53:20.808Z,17.50
2018-04-18T18:55:49.232Z,17.50
2018-04-18T18:58:17.525Z,17.50
2018-04-18T19:00:45.805Z,17.40
2018-04-18T19:03:14.121Z,17.40
2018-04-18T19:05:43.221Z,17.10
2018-04-18T19:08:12.335Z,17.00
2018-04-18T19:10:40.568Z,17.00
2018-04-18T19:13:08.886Z,17.00
2018-04-18T19:15:37.237Z,17.00
2018-04-18T19:18:06.309Z,17.00
2018-04-18T19:20:34.593Z,16.70
2018-04-18T19:23:02.941Z,16.50
2018-04-18T19:25:31.237Z,16.30
2018-04-18T19:27:59.553Z,16.20
2018-04-18T19:30:27.837Z,16.20
2018-04-18T19:32:56.121Z,16.20
2018-04-18T19:35:24.444Z,16.10
2018-04-18T19:37:52.725Z,16.00
2018-04-18T19:40:21.062Z,15.80
2018-04-18T19:42:49.345Z,15.60
2018-04-18T19:45:17.637Z,15.50
2018-04-18T19:47:46.821Z,15.40
2018-04-18T19:50:15.865Z,15.60
2018-04-18T19:52:44.389Z,15.50
2018-04-18T19:55:12.678Z,15.40
2018-04-18T19:57:40.960Z,15.30
2018-04-18T20:00:09.290Z,15.20
2018-04-18T20:02:38.336Z,15.10
2018-04-18T20:05:06.661Z,15.10
2018-04-18T20:07:34.936Z,15.00
2018-04-18T20:10:03.254Z,14.90
2018-04-18T20:12:31.546Z,14.80
2018-04-18T20:14:59.861Z,14.80
2018-04-18T20:17:28.207Z,14.80
2018-04-18T20:19:56.525Z,14.90
2018-04-18T20:22:25.630Z,15.00
2018-04-18T20:24:53.912Z,15.00
2018-04-18T20:27:22.207Z,15.10
2018-04-18T20:29:51.392Z,15.10
2018-04-18T20:32:19.816Z,15.00
2018-04-18T20:34:48.860Z,15.00
2018-04-18T20:37:17.141Z,15.00
2018-04-18T20:39:45.668Z,14.90
2018-04-18T20:42:13.950Z,14.60
2018-04-18T20:44:42.233Z,14.40
2018-04-18T20:47:10.544Z,14.20
2018-04-18T20:49:40.369Z,14.20
2018-04-18T20:52:08.757Z,14.10
2018-04-18T20:54:37.248Z,14.30
2018-04-18T20:57:05.549Z,14.30
2018-04-18T20:59:33.832Z,14.10
2018-04-18T21:02:02.156Z,14.00
2018-04-18T21:04:30.450Z,14.00
2018-04-18T21:06:58.797Z,13.80
2018-04-18T21:09:27.189Z,13.80
2018-04-18T21:11:55.579Z,13.90
2018-04-18T21:14:23.975Z,13.90
2018-04-18T21:16:52.371Z,13.80
2018-04-18T21:19:22.166Z,13.50
2018-04-18T21:21:50.489Z,13.50
2018-04-18T21:24:18.849Z,13.50
2018-04-18T21:26:47.141Z,13.50
2018-04-18T21:29:15.545Z,13.60
2018-04-18T21:31:43.832Z,13.40
2018-04-18T21:34:12.153Z,13.30
2018-04-18T21:36:41.211Z,13.40
2018-04-18T21:39:09.531Z,13.40
2018-04-18T21:41:39.358Z,13.40
2018-04-18T21:44:07.740Z,13.40
2018-04-18T21:46:36.124Z,13.60
2018-04-18T21:49:04.414Z,13.50
2018-04-18T21:51:32.753Z,13.40
2018-04-18T21:54:01.044Z,13.30
2018-04-18T21:56:29.397Z,13.20
2018-04-18T21:58:57.721Z,13.10
2018-04-18T22:01:26.068Z,13.00
2018-04-18T22:03:54.394Z,13.20
2018-04-18T22:06:23.674Z,13.30
2018-04-18T22:08:51.976Z,13.20
2018-04-18T22:11:20.261Z,13.20
2018-04-18T22:13:48.645Z,13.20
2018-04-18T22:16:17.033Z,13.00
2018-04-18T22:18:45.424Z,12.80
2018-04-18T22:21:13.717Z,12.60
2018-04-18T22:23:42.054Z,12.60
2018-04-18T22:26:10.368Z,12.50
2018-04-18T22:28:38.707Z,12.60
2018-04-18T22:31:07.872Z,12.80
2018-04-18T22:33:36.193Z,12.80
2018-04-18T22:36:05.289Z,12.90
2018-04-18T22:38:33.617Z,12.90
2018-04-18T22:41:01.914Z,12.90
2018-04-18T22:43:30.237Z,12.80
2018-04-18T22:45:58.530Z,12.70
2018-04-18T22:48:26.849Z,12.50
2018-04-18T22:50:55.954Z,12.10
2018-04-18T22:53:24.346Z,12.10
2018-04-18T22:55:53.445Z,12.00
2018-04-18T22:58:21.773Z,12.00
2018-04-18T23:00:50.065Z,12.00
2018-04-18T23:03:18.360Z,12.00
2018-04-18T23:05:46.687Z,12.00
2018-04-18T23:08:15.001Z,12.10
2018-04-18T23:10:43.489Z,12.20
2018-04-18T23:13:11.782Z,12.20
2018-04-18T23:15:40.070Z,12.20
2018-04-18T23:18:08.409Z,12.20
2018-04-18T23:20:36.734Z,12.20
2018-04-18T23:23:05.029Z,12.10
2018-04-18T23:25:33.358Z,12.10
2018-04-18T23:28:02.444Z,11.90
2018-04-18T23:30:30.733Z,11.90
2018-04-18T23:32:59.789Z,11.80
2018-04-18T23:35:28.134Z,11.70
2018-04-18T23:37:56.514Z,11.80
2018-04-18T23:40:24.899Z,11.80
2018-04-18T23:42:53.189Z,11.90
2018-04-18T23:45:21.688Z,12.00
2018-04-18T23:47:49.990Z,11.90
2018-04-18T23:50:19.051Z,11.70
2018-04-18T23:52:47.394Z,11.70
2018-04-18T23:55:16.450Z,11.60
2018-04-18T23:57:44.877Z,11.60
